Schrunz, Liechtenstein
Current Conditions -  °F | °C
As of 6:20 AM on Wednesday 26 Nov 2014 (Local Time) from LSZR Reporting Station
Haze Haze  
Wind Chill: 45°   Ceiling: 300
Heat Index: 45°   Visibility: 2mi
Dew Point: 45°   Wind: 2mph
Humidity: 100%   Direction: 110°ESE
Pressure: 30"   Gusts: NA
Location:  47.08°N, 9.93°E
Report Text: LSZR 260420Z AUTO 11002KT 3200 BR BKN003 07/07 Q1016
Loading
Personal Weather Stations






























Interactive Weather Map New forecast layout! Learn more

10-Day Weather Forecast

Advertisements
Track Severe Weather on mobile